Mesa.AZweather.com - Mesa, AZ
   Red Mountain Frwy and University Dr., El 1518 ft.
       --- Monday  August 1, 2022 ---
 
 High Temperature ..  103F at 15:04
 Low Temperature ...  80F at 07:04
 
 High Humidity .....  67% at 06:36
 Low Humidity ......  29% at 15:50
 
 High Barometer ....  30.05 at 00:00
 Low Barometer .....  29.86 at 17:35
 
 High Dew Point ....  69F at 03:45
 Low Dew Point .....  62F at 18:00
 
 Rainfall Total ....  0.00 in.
 
 High Wind Speed ...  ---
                     
 
 Time   Temp  Humi  Rain     Baro  DewPt  Wind
00:00,  86F, 50%, 0.00 in, 30.05, 65F, ---
00:30,  85F, 52%, 0.00 in, 30.04, 65F, ---
01:00,  85F, 54%, 0.00 in, 30.03, 66F, ---
01:30,  85F, 56%, 0.00 in, 30.02, 67F, ---
02:00,  84F, 57%, 0.00 in, 30.01, 67F, ---
02:30,  84F, 57%, 0.00 in, 30.00, 67F, ---
03:00,  84F, 59%, 0.00 in, 30.00, 68F, ---
03:30,  83F, 60%, 0.00 in, 30.00, 67F, ---
04:00,  84F, 60%, 0.00 in, 30.02, 69F, ---
04:30,  83F, 58%, 0.00 in, 30.02, 66F, ---
05:00,  83F, 60%, 0.00 in, 30.02, 67F, ---
05:30,  82F, 62%, 0.00 in, 30.03, 68F, ---
06:00,  81F, 64%, 0.00 in, 30.03, 67F, ---
06:30,  81F, 66%, 0.00 in, 30.03, 68F, ---
07:00,  81F, 67%, 0.00 in, 30.05, 69F, ---
07:30,  81F, 64%, 0.00 in, 30.05, 67F, ---
08:00,  84F, 57%, 0.00 in, 30.05, 67F, ---
08:30,  84F, 51%, 0.00 in, 30.05, 64F, ---
09:00,  87F, 48%, 0.00 in, 30.04, 66F, ---
09:30,  88F, 46%, 0.00 in, 30.04, 64F, ---
10:00,  90F, 44%, 0.00 in, 30.03, 65F, ---
10:30,  92F, 42%, 0.00 in, 30.03, 65F, ---
11:00,  93F, 40%, 0.00 in, 30.01, 65F, ---
11:30,  95F, 38%, 0.00 in, 30.00, 65F, ---
12:00,  97F, 37%, 0.00 in, 29.99, 66F, ---
12:30,  98F, 36%, 0.00 in, 29.98, 67F, ---
13:00,  99F, 34%, 0.00 in, 29.97, 65F, ---
13:30,  100F, 32%, 0.00 in, 29.96, 65F, ---
14:00,  101F, 33%, 0.00 in, 29.94, 66F, ---
14:30,  101F, 32%, 0.00 in, 29.93, 65F, ---
15:00,  102F, 30%, 0.00 in, 29.92, 65F, ---
15:30,  102F, 30%, 0.00 in, 29.90, 65F, ---
16:00,  103F, 29%, 0.00 in, 29.90, 64F, ---
16:30,  102F, 30%, 0.00 in, 29.89, 65F, ---
17:00,  102F, 30%, 0.00 in, 29.87, 65F, ---
17:30,  102F, 30%, 0.00 in, 29.87, 65F, ---
18:00,  102F, 29%, 0.00 in, 29.87, 64F, ---
18:30,  101F, 31%, 0.00 in, 29.88, 64F, ---
19:00,  100F, 30%, 0.00 in, 29.88, 63F, ---
19:30,  98F, 33%, 0.00 in, 29.88, 64F, ---
20:00,  96F, 34%, 0.00 in, 29.89, 64F, ---
20:30,  95F, 35%, 0.00 in, 29.89, 63F, ---
21:00,  94F, 36%, 0.00 in, 29.90, 62F, ---
21:30,  94F, 37%, 0.00 in, 29.92, 63F, ---
22:00,  94F, 37%, 0.00 in, 29.92, 63F, ---
22:30,  94F, 38%, 0.00 in, 29.92, 64F, ---
23:00,  92F, 40%, 0.00 in, 29.93, 64F, ---
23:30,  91F, 42%, 0.00 in, 29.93, 65F, ---
23:59,  90F, 42%, 0.00 in, 29.93, 63F, ---